Time;durP1;ratioP1;P1;durP2;ratioP2;P2;SDS_P1;SDS_P2;PMS_P1;PMS_P2;Temp;Humidity;BMP_temperature;BMP_pressure;BME280_temperature;BME280_humidity;BME280_pressure;Samples;Min_cycle;Max_cycle;Signal;HPM_P1;HPM_P2
2022/01/27 00:04:30;;;;;;;;;;;7.90;85.00;;;;;;5092202;28;19924;-76
2022/01/27 00:06:57;;;;;;;;;;;7.90;85.10;;;;;;5094079;28;19931;-75
2022/01/27 00:12:24;;;;;;;;;;;7.90;85.20;;;;;;5054491;28;19932;-75
2022/01/27 00:15:07;;;;;;;;;;;8.00;85.40;;;;;;5052292;28;19925;-74
2022/01/27 00:17:39;;;;;;;;;;;8.00;85.40;;;;;;5042339;28;20383;-75
2022/01/27 00:20:07;;;;;;;;;;;8.00;85.40;;;;;;5048243;28;19936;-75
2022/01/27 00:22:34;;;;;;;;;;;8.10;85.40;;;;;;5035353;28;20559;-74
2022/01/27 00:25:03;;;;;;;;;;;8.10;85.40;;;;;;5050183;28;19933;-75
2022/01/27 00:27:30;;;;;;;;;;;8.10;85.50;;;;;;5034283;28;20063;-75
2022/01/27 00:30:00;;;;;;;;;;;8.20;85.60;;;;;;5030294;28;20441;-74
2022/01/27 00:32:27;;;;;;;;;;;8.20;85.60;;;;;;5047547;28;19955;-74
2022/01/27 00:34:55;;;;;;;;;;;8.20;85.60;;;;;;5048704;28;20424;-76
2022/01/27 00:37:22;;;;;;;;;;;8.20;85.60;;;;;;5050226;28;19933;-75
2022/01/27 00:39:50;;;;;;;;;;;8.20;85.60;;;;;;5034705;28;19925;-76
2022/01/27 00:42:17;;;;;;;;;;;8.30;85.60;;;;;;5050916;28;19936;-76
2022/01/27 00:44:44;;;;;;;;;;;8.30;85.60;;;;;;5031339;28;19925;-76
2022/01/27 00:47:12;;;;;;;;;;;8.30;85.50;;;;;;5037557;28;19926;-76
2022/01/27 00:49:39;;;;;;;;;;;8.30;85.60;;;;;;5092250;28;19924;-74
2022/01/27 00:52:11;;;;;;;;;;;8.30;85.50;;;;;;5092626;28;20281;-75
2022/01/27 00:54:38;;;;;;;;;;;8.30;85.60;;;;;;5092921;28;19931;-76
2022/01/27 01:04:33;;;;;;;;;;;8.30;85.70;;;;;;5096289;28;20296;-75
2022/01/27 01:07:01;;;;;;;;;;;8.40;85.80;;;;;;5094351;28;19924;-75
2022/01/27 01:15:15;;;;;;;;;;;8.40;86.00;;;;;;5092640;28;19924;-74
2022/01/27 01:20:42;;;;;;;;;;;8.40;86.20;;;;;;5096308;28;19931;-75
2022/01/27 01:31:42;;;;;;;;;;;8.40;87.00;;;;;;5094681;28;19935;-76
2022/01/27 01:34:18;;;;;;;;;;;8.40;87.40;;;;;;5088822;28;19924;-76
2022/01/27 01:36:54;;;;;;;;;;;8.40;87.60;;;;;;5102901;27;19924;-75
2022/01/27 01:39:29;;;;;;;;;;;8.40;87.80;;;;;;5070622;28;20397;-75
2022/01/27 01:41:57;;;;;;;;;;;8.30;88.00;;;;;;5093163;28;19950;-74
2022/01/27 01:44:25;;;;;;;;;;;8.30;88.10;;;;;;5096894;28;20286;-74
2022/01/27 01:46:53;;;;;;;;;;;8.30;88.20;;;;;;5102868;28;20297;-74
2022/01/27 01:49:22;;;;;;;;;;;8.30;88.30;;;;;;5105432;27;19936;-74
2022/01/27 01:51:50;;;;;;;;;;;8.30;88.40;;;;;;5088645;28;19931;-74
2022/01/27 01:54:17;;;;;;;;;;;8.30;88.40;;;;;;5108934;27;20305;-74
2022/01/27 01:56:44;;;;;;;;;;;8.30;88.50;;;;;;5112044;28;20002;-74
2022/01/27 01:59:12;;;;;;;;;;;8.30;88.50;;;;;;5094567;28;19935;-74
2022/01/27 02:01:40;;;;;;;;;;;8.40;88.50;;;;;;5092116;28;19924;-75
2022/01/27 02:04:09;;;;;;;;;;;8.40;88.50;;;;;;5108994;28;19928;-75
2022/01/27 02:06:56;;;;;;;;;;;8.40;88.50;;;;;;5092687;28;19928;-75
2022/01/27 02:09:47;;;;;;;;;;;8.40;88.50;;;;;;5091367;28;19924;-75
2022/01/27 02:17:58;;;;;;;;;;;8.40;88.40;;;;;;5106232;28;19928;-75
2022/01/27 02:20:27;;;;;;;;;;;8.50;88.50;;;;;;5106205;28;19924;-75
2022/01/27 02:22:54;;;;;;;;;;;8.50;88.50;;;;;;5112319;28;19923;-75
2022/01/27 02:25:22;;;;;;;;;;;8.50;88.50;;;;;;5112895;28;19924;-76
2022/01/27 02:27:54;;;;;;;;;;;8.60;88.50;;;;;;5101942;28;19924;-74
2022/01/27 02:30:24;;;;;;;;;;;8.60;88.50;;;;;;5084686;28;19923;-75
2022/01/27 02:32:52;;;;;;;;;;;8.70;88.50;;;;;;5106592;28;20289;-75
2022/01/27 02:35:22;;;;;;;;;;;8.60;88.50;;;;;;5103954;28;19931;-74
2022/01/27 02:37:49;;;;;;;;;;;8.70;88.50;;;;;;5101325;28;19924;-74
2022/01/27 02:40:26;;;;;;;;;;;8.70;88.60;;;;;;5104335;28;19931;-75
2022/01/27 02:42:53;;;;;;;;;;;8.70;88.60;;;;;;5094828;28;19924;-76
2022/01/27 02:45:30;;;;;;;;;;;8.70;88.70;;;;;;5092624;28;19932;-75
2022/01/27 02:47:58;;;;;;;;;;;8.60;88.80;;;;;;5094051;28;19928;-76
2022/01/27 02:50:25;;;;;;;;;;;8.60;89.00;;;;;;5106847;28;19928;-76
2022/01/27 02:52:53;;;;;;;;;;;8.60;89.00;;;;;;5092802;28;19924;-75
2022/01/27 02:55:20;;;;;;;;;;;8.60;89.00;;;;;;5092358;28;20414;-75
2022/01/27 02:57:47;;;;;;;;;;;8.60;89.00;;;;;;5096552;28;20380;-75
2022/01/27 03:00:15;;;;;;;;;;;8.60;89.00;;;;;;5103219;28;19924;-75
2022/01/27 03:02:42;;;;;;;;;;;8.70;88.80;;;;;;5108296;28;19928;-75
2022/01/27 03:05:10;;;;;;;;;;;8.80;88.60;;;;;;5092322;28;20293;-75
2022/01/27 03:07:37;;;;;;;;;;;8.80;88.40;;;;;;5103925;28;19951;-75
2022/01/27 03:10:05;;;;;;;;;;;8.80;88.30;;;;;;5092494;28;20369;-74
2022/01/27 03:12:36;;;;;;;;;;;8.80;88.10;;;;;;5101169;28;19942;-75
2022/01/27 03:15:07;;;;;;;;;;;8.80;88.00;;;;;;5088831;28;19931;-74
2022/01/27 03:17:34;;;;;;;;;;;8.90;87.90;;;;;;5071956;28;19924;-75
2022/01/27 03:20:02;;;;;;;;;;;8.90;87.80;;;;;;5085906;28;19938;-75
2022/01/27 03:22:30;;;;;;;;;;;8.90;87.80;;;;;;5075762;28;19924;-74
2022/01/27 03:24:57;;;;;;;;;;;8.90;87.70;;;;;;5090351;28;20364;-74
2022/01/27 03:27:26;;;;;;;;;;;8.90;87.70;;;;;;5081209;28;19924;-75
2022/01/27 03:29:54;;;;;;;;;;;8.90;87.70;;;;;;5071461;28;19925;-75
2022/01/27 03:32:21;;;;;;;;;;;8.90;87.60;;;;;;5059182;28;19932;-75
2022/01/27 03:34:49;;;;;;;;;;;8.90;87.50;;;;;;5071895;28;19928;-75
2022/01/27 03:37:16;;;;;;;;;;;8.90;87.50;;;;;;5070105;28;19931;-75
2022/01/27 03:39:44;;;;;;;;;;;8.90;87.60;;;;;;5073084;28;20393;-75
2022/01/27 03:42:11;;;;;;;;;;;8.90;87.60;;;;;;5103922;28;19931;-75
2022/01/27 03:44:39;;;;;;;;;;;8.90;87.60;;;;;;5074316;28;19935;-75
2022/01/27 03:47:06;;;;;;;;;;;8.90;87.70;;;;;;5083520;28;19931;-74
2022/01/27 03:49:34;;;;;;;;;;;8.90;87.70;;;;;;5093647;28;19924;-74
2022/01/27 03:52:02;;;;;;;;;;;8.90;87.80;;;;;;5079453;28;19924;-74
2022/01/27 03:54:32;;;;;;;;;;;8.90;87.70;;;;;;5086862;28;19943;-74
2022/01/27 03:57:00;;;;;;;;;;;8.90;87.70;;;;;;5071000;28;19936;-74
2022/01/27 03:59:28;;;;;;;;;;;8.90;87.70;;;;;;5071307;28;19924;-75
2022/01/27 04:01:55;;;;;;;;;;;8.90;87.70;;;;;;5070028;28;19925;-75
2022/01/27 04:04:24;;;;;;;;;;;8.90;87.70;;;;;;5071377;28;20281;-75
2022/01/27 04:06:53;;;;;;;;;;;8.80;87.80;;;;;;5070783;28;19933;-75
2022/01/27 04:09:20;;;;;;;;;;;8.90;87.80;;;;;;5080000;28;19924;-75
2022/01/27 04:11:47;;;;;;;;;;;8.80;87.80;;;;;;5092759;28;19928;-75
2022/01/27 04:14:15;;;;;;;;;;;8.80;87.90;;;;;;5082694;28;19924;-74
2022/01/27 04:16:42;;;;;;;;;;;8.80;87.90;;;;;;5102536;28;19935;-75
2022/01/27 04:19:10;;;;;;;;;;;8.80;88.00;;;;;;5084892;28;19951;-75
2022/01/27 04:21:37;;;;;;;;;;;8.80;88.00;;;;;;5093380;28;19924;-75
2022/01/27 04:24:05;;;;;;;;;;;8.80;88.10;;;;;;5094068;28;20434;-75
2022/01/27 04:26:58;;;;;;;;;;;8.90;88.20;;;;;;5095226;28;20423;-74
2022/01/27 04:29:23;;;;;;;;;;;9.00;88.20;;;;;;5103509;28;19931;-74
2022/01/27 04:31:52;;;;;;;;;;;9.00;88.10;;;;;;5099695;28;19924;-75
2022/01/27 04:34:19;;;;;;;;;;;9.20;88.00;;;;;;5109689;28;19935;-75
2022/01/27 04:36:47;;;;;;;;;;;9.30;88.00;;;;;;5096373;28;20002;-75
2022/01/27 04:39:22;;;;;;;;;;;9.30;87.80;;;;;;5105181;28;20296;-74
2022/01/27 04:44:31;;;;;;;;;;;9.30;87.80;;;;;;5113121;28;20294;-75
2022/01/27 04:47:08;;;;;;;;;;;9.30;87.70;;;;;;5104004;28;19924;-75
2022/01/27 04:49:36;;;;;;;;;;;9.30;87.70;;;;;;5099720;28;20381;-76
2022/01/27 04:52:04;;;;;;;;;;;9.30;87.80;;;;;;5108571;28;19938;-74
2022/01/27 04:54:47;;;;;;;;;;;9.30;87.80;;;;;;5113156;28;20277;-75
2022/01/27 04:57:14;;;;;;;;;;;9.30;87.80;;;;;;5099576;28;19924;-75
2022/01/27 04:59:44;;;;;;;;;;;9.30;87.90;;;;;;5104348;28;19925;-75
2022/01/27 05:02:20;;;;;;;;;;;9.30;88.10;;;;;;5105500;28;19931;-74
2022/01/27 05:04:50;;;;;;;;;;;9.30;88.30;;;;;;5096738;28;19931;-75
2022/01/27 05:07:39;;;;;;;;;;;9.20;88.60;;;;;;5123554;27;19924;-75
2022/01/27 05:10:13;;;;;;;;;;;9.20;89.00;;;;;;5092839;28;19924;-75
2022/01/27 05:12:46;;;;;;;;;;;9.10;89.20;;;;;;5081388;28;19935;-75
2022/01/27 05:15:13;;;;;;;;;;;9.10;89.60;;;;;;5104260;28;19931;-75
2022/01/27 05:17:40;;;;;;;;;;;9.10;89.90;;;;;;5099710;28;19928;-75
2022/01/27 05:20:08;;;;;;;;;;;9.00;90.20;;;;;;5098294;28;19932;-75
2022/01/27 05:22:36;;;;;;;;;;;9.10;90.40;;;;;;5091097;28;19931;-75
2022/01/27 05:25:04;;;;;;;;;;;9.00;90.50;;;;;;5092235;28;19924;-75
2022/01/27 05:27:31;;;;;;;;;;;9.10;90.70;;;;;;5093121;28;19936;-74
2022/01/27 05:30:01;;;;;;;;;;;9.10;90.80;;;;;;5095012;28;19924;-76
2022/01/27 05:32:28;;;;;;;;;;;9.10;90.90;;;;;;5110008;28;19927;-76
2022/01/27 05:34:56;;;;;;;;;;;9.00;90.90;;;;;;5109631;28;19931;-76
2022/01/27 05:37:23;;;;;;;;;;;9.10;91.00;;;;;;5103466;28;19924;-76
2022/01/27 05:39:51;;;;;;;;;;;9.10;91.00;;;;;;5104009;28;19928;-76
2022/01/27 05:42:18;;;;;;;;;;;9.10;90.90;;;;;;5091931;28;19924;-76
2022/01/27 05:44:46;;;;;;;;;;;9.10;91.00;;;;;;5110502;28;19923;-76
2022/01/27 05:47:14;;;;;;;;;;;9.10;91.00;;;;;;5106908;28;19939;-76
2022/01/27 05:49:42;;;;;;;;;;;9.10;91.00;;;;;;5093078;28;20399;-76
2022/01/27 05:52:09;;;;;;;;;;;9.10;90.90;;;;;;5079261;28;20301;-76
2022/01/27 05:54:37;;;;;;;;;;;9.20;90.80;;;;;;5091732;28;19924;-76
2022/01/27 05:57:04;;;;;;;;;;;9.20;90.80;;;;;;5109856;28;20307;-75
2022/01/27 05:59:31;;;;;;;;;;;9.20;90.70;;;;;;5092521;28;19928;-76
2022/01/27 06:01:59;;;;;;;;;;;9.20;90.70;;;;;;5094235;28;20296;-75
2022/01/27 06:04:27;;;;;;;;;;;9.20;90.70;;;;;;5095244;28;19924;-74
2022/01/27 06:06:54;;;;;;;;;;;9.20;90.60;;;;;;5113275;28;19923;-76
2022/01/27 06:09:21;;;;;;;;;;;9.30;90.50;;;;;;5075324;28;19924;-75
2022/01/27 06:11:50;;;;;;;;;;;9.30;90.40;;;;;;5101396;28;19931;-75
2022/01/27 06:14:18;;;;;;;;;;;9.30;90.30;;;;;;5110928;28;19924;-75
2022/01/27 06:16:45;;;;;;;;;;;9.30;90.20;;;;;;5091769;28;20293;-75
2022/01/27 06:19:13;;;;;;;;;;;9.30;90.20;;;;;;5092195;28;19931;-75
2022/01/27 06:21:44;;;;;;;;;;;9.30;90.10;;;;;;5102677;28;19932;-75
2022/01/27 06:24:11;;;;;;;;;;;9.30;90.10;;;;;;5113448;28;19924;-75
2022/01/27 06:26:38;;;;;;;;;;;9.30;90.10;;;;;;5110853;28;19924;-76
2022/01/27 06:29:05;;;;;;;;;;;9.30;90.10;;;;;;5092927;28;19924;-77
2022/01/27 06:31:33;;;;;;;;;;;9.30;90.10;;;;;;5095562;28;19931;-75
2022/01/27 06:34:01;;;;;;;;;;;9.30;90.10;;;;;;5091007;28;19924;-75
2022/01/27 06:36:28;;;;;;;;;;;9.30;90.10;;;;;;5094552;28;19993;-76
2022/01/27 06:38:55;;;;;;;;;;;9.30;90.10;;;;;;5104946;28;19950;-76
2022/01/27 06:41:23;;;;;;;;;;;9.30;90.10;;;;;;5101926;28;19924;-76
2022/01/27 06:43:53;;;;;;;;;;;9.30;90.20;;;;;;5111484;28;19924;-76
2022/01/27 06:46:20;;;;;;;;;;;9.30;90.20;;;;;;5111040;28;20498;-75
2022/01/27 06:48:48;;;;;;;;;;;9.30;90.20;;;;;;5092807;28;19931;-75
2022/01/27 06:51:15;;;;;;;;;;;9.30;90.30;;;;;;5100644;28;19930;-76
2022/01/27 06:53:42;;;;;;;;;;;9.30;90.40;;;;;;5098449;28;19924;-76
2022/01/27 06:56:10;;;;;;;;;;;9.30;90.40;;;;;;5091342;28;19925;-76
2022/01/27 06:58:37;;;;;;;;;;;9.30;90.70;;;;;;5109879;28;19931;-74
2022/01/27 07:01:05;;;;;;;;;;;9.30;90.90;;;;;;5084654;28;19924;-76
2022/01/27 07:03:34;;;;;;;;;;;9.30;91.10;;;;;;5101366;28;19924;-76
2022/01/27 07:06:01;;;;;;;;;;;9.40;91.40;;;;;;5092352;28;19928;-75
2022/01/27 07:08:29;;;;;;;;;;;9.40;91.40;;;;;;5108563;28;19925;-75
2022/01/27 07:10:56;;;;;;;;;;;9.30;91.40;;;;;;5097682;28;20414;-77
2022/01/27 07:13:24;;;;;;;;;;;9.30;91.40;;;;;;5094203;28;20030;-77
2022/01/27 07:15:51;;;;;;;;;;;9.30;91.40;;;;;;5112418;28;19924;-77
2022/01/27 07:18:19;;;;;;;;;;;9.30;91.50;;;;;;5093780;28;19931;-77
2022/01/27 07:20:46;;;;;;;;;;;9.40;91.50;;;;;;5092912;28;19931;-77
2022/01/27 07:23:14;;;;;;;;;;;9.30;91.40;;;;;;5100558;28;19931;-77
2022/01/27 07:25:41;;;;;;;;;;;9.30;91.50;;;;;;5090988;28;19924;-76
2022/01/27 07:28:09;;;;;;;;;;;9.40;91.50;;;;;;5090035;28;19947;-77
2022/01/27 07:30:36;;;;;;;;;;;9.40;91.50;;;;;;5097291;28;19951;-77
2022/01/27 07:33:04;;;;;;;;;;;9.40;91.60;;;;;;5092323;28;20377;-77
2022/01/27 07:35:31;;;;;;;;;;;9.40;91.50;;;;;;5092047;28;19931;-77
2022/01/27 07:37:59;;;;;;;;;;;9.40;91.60;;;;;;5091305;28;20396;-77
2022/01/27 07:40:28;;;;;;;;;;;9.40;91.60;;;;;;5100433;28;20397;-77
2022/01/27 07:43:13;;;;;;;;;;;9.40;91.60;;;;;;5102095;28;19923;-78
2022/01/27 07:45:41;;;;;;;;;;;9.40;91.60;;;;;;5096234;28;19931;-78
2022/01/27 07:48:09;;;;;;;;;;;9.50;91.50;;;;;;5111202;28;20404;-78
2022/01/27 07:50:36;;;;;;;;;;;9.50;91.50;;;;;;5096876;28;19924;-78
2022/01/27 07:53:04;;;;;;;;;;;9.50;91.40;;;;;;5107590;28;19939;-77
2022/01/27 07:55:31;;;;;;;;;;;9.50;91.30;;;;;;5112181;28;19924;-77
2022/01/27 07:57:59;;;;;;;;;;;9.50;91.30;;;;;;5096243;28;19924;-77
2022/01/27 08:00:26;;;;;;;;;;;9.50;91.10;;;;;;5119901;27;20355;-77
2022/01/27 08:02:54;;;;;;;;;;;9.60;91.00;;;;;;5092813;28;19952;-77
2022/01/27 08:05:21;;;;;;;;;;;9.60;90.80;;;;;;5092790;28;19931;-78
2022/01/27 08:07:49;;;;;;;;;;;9.50;90.70;;;;;;5094586;28;19928;-78
2022/01/27 08:10:16;;;;;;;;;;;9.50;90.50;;;;;;5104183;28;19924;-78
2022/01/27 08:12:44;;;;;;;;;;;9.50;90.40;;;;;;5101100;28;19924;-77
2022/01/27 08:15:11;;;;;;;;;;;9.50;90.40;;;;;;5111291;28;19924;-78
2022/01/27 08:17:39;;;;;;;;;;;9.50;90.40;;;;;;5081236;28;20261;-76
2022/01/27 08:20:07;;;;;;;;;;;9.50;90.20;;;;;;5107203;28;20003;-81
2022/01/27 08:22:38;;;;;;;;;;;9.50;90.10;;;;;;5102597;28;19923;-79
2022/01/27 08:25:06;;;;;;;;;;;9.40;90.10;;;;;;5100826;28;19924;-78
2022/01/27 08:27:34;;;;;;;;;;;9.40;89.80;;;;;;5092379;28;19931;-78
2022/01/27 08:30:04;;;;;;;;;;;9.40;89.60;;;;;;5092629;28;20377;-78
2022/01/27 08:32:50;;;;;;;;;;;9.30;89.50;;;;;;5090023;28;19935;-79
2022/01/27 08:35:18;;;;;;;;;;;9.30;89.40;;;;;;5074879;28;19931;-78
2022/01/27 08:37:45;;;;;;;;;;;9.30;89.40;;;;;;5074750;28;20262;-78
2022/01/27 08:40:14;;;;;;;;;;;9.30;89.30;;;;;;5072738;28;19928;-77
2022/01/27 08:43:02;;;;;;;;;;;9.30;89.20;;;;;;5085391;28;19924;-79
2022/01/27 08:45:30;;;;;;;;;;;9.30;89.10;;;;;;5094427;28;19931;-79
2022/01/27 08:47:59;;;;;;;;;;;9.30;89.10;;;;;;5095170;28;19924;-77
2022/01/27 08:50:27;;;;;;;;;;;9.30;89.10;;;;;;5093440;28;20401;-78
2022/01/27 08:52:54;;;;;;;;;;;9.30;89.10;;;;;;5091068;28;19931;-77
2022/01/27 08:55:22;;;;;;;;;;;9.30;89.20;;;;;;5094876;28;19931;-77
2022/01/27 08:57:50;;;;;;;;;;;9.30;89.20;;;;;;5094624;28;20305;-77
2022/01/27 09:00:19;;;;;;;;;;;9.30;89.20;;;;;;5094272;28;19924;-77
2022/01/27 09:02:51;;;;;;;;;;;9.30;89.20;;;;;;5093092;28;19947;-78
2022/01/27 09:05:18;;;;;;;;;;;9.30;89.10;;;;;;5094667;28;20277;-78
2022/01/27 09:07:46;;;;;;;;;;;9.30;89.00;;;;;;5094941;28;19931;-78
2022/01/27 09:10:15;;;;;;;;;;;9.30;89.00;;;;;;5107016;28;19939;-78
2022/01/27 09:12:43;;;;;;;;;;;9.30;89.00;;;;;;5099590;28;20549;-77
2022/01/27 09:15:10;;;;;;;;;;;9.20;88.60;;;;;;5093643;28;19961;-77
2022/01/27 09:17:40;;;;;;;;;;;9.20;88.50;;;;;;5094249;28;19924;-78
2022/01/27 09:20:08;;;;;;;;;;;9.20;88.40;;;;;;5093064;28;20266;-78
2022/01/27 09:22:36;;;;;;;;;;;9.20;88.20;;;;;;5090350;28;19924;-77
2022/01/27 09:25:43;;;;;;;;;;;9.10;88.10;;;;;;5093706;28;19931;-79
2022/01/27 09:28:03;;;;;;;;;;;9.20;88.00;;;;;;5090251;28;19928;-78
2022/01/27 09:30:31;;;;;;;;;;;9.30;88.00;;;;;;5093713;28;19924;-79
2022/01/27 09:32:58;;;;;;;;;;;9.20;88.00;;;;;;5093111;28;20419;-78
2022/01/27 09:35:30;;;;;;;;;;;9.20;88.00;;;;;;5123556;27;20427;-78
2022/01/27 09:37:58;;;;;;;;;;;9.10;88.00;;;;;;5093883;28;19931;-78
2022/01/27 09:40:26;;;;;;;;;;;9.10;87.90;;;;;;5073334;28;20373;-78
2022/01/27 09:42:55;;;;;;;;;;;9.00;87.60;;;;;;5081648;28;20301;-79
2022/01/27 09:45:23;;;;;;;;;;;9.00;87.60;;;;;;5093693;28;19931;-79
2022/01/27 09:48:01;;;;;;;;;;;9.00;87.50;;;;;;5093294;28;19931;-77
2022/01/27 09:51:24;;;;;;;;;;;9.10;87.10;;;;;;5091793;28;19931;-77
2022/01/27 09:53:17;;;;;;;;;;;9.20;86.90;;;;;;5084634;28;20377;-77
2022/01/27 09:55:45;;;;;;;;;;;9.30;86.60;;;;;;5090537;28;20304;-77
2022/01/27 09:58:13;;;;;;;;;;;9.40;85.90;;;;;;5092257;28;19928;-77
2022/01/27 10:00:40;;;;;;;;;;;9.50;85.60;;;;;;5092093;28;19943;-78
2022/01/27 10:03:13;;;;;;;;;;;9.60;84.70;;;;;;5093456;28;20373;-78
2022/01/27 10:05:42;;;;;;;;;;;9.60;83.60;;;;;;5092633;28;19930;-78
2022/01/27 10:08:12;;;;;;;;;;;9.70;82.70;;;;;;5091572;28;19947;-78
2022/01/27 10:10:50;;;;;;;;;;;9.60;82.30;;;;;;5092127;28;19932;-78
2022/01/27 10:13:31;;;;;;;;;;;9.60;81.70;;;;;;5093150;28;19924;-77
2022/01/27 10:16:00;;;;;;;;;;;9.60;80.50;;;;;;5091234;28;19923;-77
2022/01/27 10:18:35;;;;;;;;;;;9.70;80.10;;;;;;5123318;27;19947;-77
2022/01/27 10:21:09;;;;;;;;;;;9.70;80.20;;;;;;5092821;28;19925;-77
2022/01/27 10:23:39;;;;;;;;;;;9.70;80.00;;;;;;5092972;28;19931;-77
2022/01/27 10:26:19;;;;;;;;;;;9.60;79.20;;;;;;5091895;28;19947;-76
2022/01/27 10:31:19;;;;;;;;;;;9.60;78.80;;;;;;5088906;28;19942;-76
2022/01/27 10:33:55;;;;;;;;;;;9.60;78.60;;;;;;5091438;28;20399;-76
2022/01/27 10:36:27;;;;;;;;;;;9.70;77.90;;;;;;5072559;28;19939;-76
2022/01/27 10:39:17;;;;;;;;;;;9.60;78.50;;;;;;5092664;28;19958;-77
2022/01/27 10:41:55;;;;;;;;;;;9.70;78.40;;;;;;5086769;28;19924;-76
2022/01/27 10:44:31;;;;;;;;;;;9.80;78.30;;;;;;5090202;28;19935;-76
2022/01/27 10:47:05;;;;;;;;;;;9.90;77.70;;;;;;5091982;28;19947;-76
2022/01/27 10:49:35;;;;;;;;;;;10.00;76.90;;;;;;5091335;28;20389;-77
2022/01/27 10:52:03;;;;;;;;;;;10.20;76.70;;;;;;5089356;28;19931;-77
2022/01/27 10:57:02;;;;;;;;;;;10.30;75.40;;;;;;5089215;28;20047;-77
2022/01/27 10:59:32;;;;;;;;;;;10.30;75.10;;;;;;5092306;28;19928;-77
2022/01/27 11:02:04;;;;;;;;;;;10.30;75.40;;;;;;5091996;28;20289;-76
2022/01/27 11:04:34;;;;;;;;;;;10.30;75.60;;;;;;5092814;28;20297;-76
2022/01/27 11:07:02;;;;;;;;;;;10.40;76.00;;;;;;5089380;28;19931;-77
2022/01/27 11:09:35;;;;;;;;;;;10.30;76.30;;;;;;5091095;28;19931;-76
2022/01/27 11:12:07;;;;;;;;;;;10.30;76.50;;;;;;5091843;28;19924;-77
2022/01/27 11:14:35;;;;;;;;;;;10.30;76.80;;;;;;5092352;28;19928;-77
2022/01/27 11:17:07;;;;;;;;;;;10.20;77.10;;;;;;5088675;28;19931;-77
2022/01/27 11:22:08;;;;;;;;;;;10.10;77.90;;;;;;5082096;28;19931;-76
2022/01/27 11:27:26;;;;;;;;;;;10.00;78.60;;;;;;5077491;28;19982;-76
2022/01/27 11:30:03;;;;;;;;;;;9.90;78.70;;;;;;5087516;28;19924;-75
2022/01/27 11:32:33;;;;;;;;;;;9.80;79.00;;;;;;5081998;28;19931;-77
2022/01/27 11:35:01;;;;;;;;;;;9.80;79.60;;;;;;5092060;28;19924;-75
2022/01/27 11:37:30;;;;;;;;;;;9.70;80.10;;;;;;5075890;28;19928;-77
2022/01/27 11:40:02;;;;;;;;;;;9.80;80.20;;;;;;5076532;28;19925;-76
2022/01/27 11:42:55;;;;;;;;;;;10.00;80.10;;;;;;5091706;28;19924;-77
2022/01/27 11:45:22;;;;;;;;;;;10.20;79.70;;;;;;5076618;28;19931;-77
2022/01/27 11:47:51;;;;;;;;;;;10.30;78.80;;;;;;5075618;28;19939;-76
2022/01/27 11:50:38;;;;;;;;;;;10.20;79.00;;;;;;5078455;28;20377;-77
2022/01/27 11:53:11;;;;;;;;;;;10.40;78.50;;;;;;5094036;28;19938;-76
2022/01/27 11:55:43;;;;;;;;;;;10.40;77.50;;;;;;5096313;28;19924;-75
2022/01/27 11:58:13;;;;;;;;;;;10.50;77.80;;;;;;5095780;28;19924;-75
2022/01/27 12:00:59;;;;;;;;;;;10.60;76.40;;;;;;5094693;28;19931;-76
2022/01/27 12:03:27;;;;;;;;;;;10.50;76.10;;;;;;5075440;28;19950;-76
2022/01/27 12:06:13;;;;;;;;;;;10.40;76.00;;;;;;5075426;28;19925;-76
2022/01/27 12:08:41;;;;;;;;;;;10.30;75.70;;;;;;5057727;28;19940;-76
2022/01/27 12:11:36;;;;;;;;;;;10.20;75.50;;;;;;5078409;28;19932;-76
2022/01/27 12:14:04;;;;;;;;;;;10.40;75.40;;;;;;5096334;28;19924;-76
2022/01/27 12:18:59;;;;;;;;;;;11.10;73.10;;;;;;5098519;28;19924;-76
2022/01/27 12:21:35;;;;;;;;;;;11.40;72.00;;;;;;5105947;28;19928;-76
2022/01/27 12:24:18;;;;;;;;;;;11.60;71.50;;;;;;5076320;28;19932;-76
2022/01/27 12:27:00;;;;;;;;;;;11.60;70.60;;;;;;5090984;28;19924;-76
2022/01/27 12:29:33;;;;;;;;;;;11.80;69.70;;;;;;5075266;28;20297;-76
2022/01/27 12:32:03;;;;;;;;;;;12.10;69.90;;;;;;5074510;28;20464;-77
2022/01/27 12:34:31;;;;;;;;;;;12.30;69.20;;;;;;5087107;28;20024;-78
2022/01/27 12:37:09;;;;;;;;;;;12.30;69.20;;;;;;5066650;28;19927;-76
2022/01/27 12:39:38;;;;;;;;;;;12.40;68.70;;;;;;5110574;28;19928;-76
2022/01/27 12:42:07;;;;;;;;;;;12.70;67.10;;;;;;5092581;28;19924;-76
2022/01/27 12:44:35;;;;;;;;;;;12.80;66.20;;;;;;5095238;28;19931;-77
2022/01/27 12:47:06;;;;;;;;;;;12.80;65.90;;;;;;5094666;28;19924;-76
2022/01/27 12:49:38;;;;;;;;;;;13.00;65.00;;;;;;5094459;28;20381;-75
2022/01/27 12:52:08;;;;;;;;;;;13.00;65.40;;;;;;5086098;28;19925;-76
2022/01/27 12:54:39;;;;;;;;;;;12.90;64.40;;;;;;5075231;28;20350;-77
2022/01/27 12:57:07;;;;;;;;;;;12.90;64.10;;;;;;5074689;28;19935;-76
2022/01/27 12:59:39;;;;;;;;;;;12.80;63.60;;;;;;5074836;28;20297;-76
2022/01/27 13:02:07;;;;;;;;;;;12.50;64.20;;;;;;5082949;28;19935;-76
2022/01/27 13:04:36;;;;;;;;;;;12.10;65.40;;;;;;5093561;28;19924;-76
2022/01/27 13:07:04;;;;;;;;;;;11.90;66.60;;;;;;5094783;28;19931;-76
2022/01/27 13:09:33;;;;;;;;;;;11.80;67.00;;;;;;5076635;28;19924;-76
2022/01/27 13:12:11;;;;;;;;;;;11.90;67.00;;;;;;5086528;28;19924;-76
2022/01/27 13:15:13;;;;;;;;;;;11.80;67.10;;;;;;5072664;28;19948;-76
2022/01/27 13:17:57;;;;;;;;;;;12.00;66.80;;;;;;5068150;28;19925;-76
2022/01/27 13:23:09;;;;;;;;;;;13.20;63.70;;;;;;5093428;28;19928;-76
2022/01/27 13:25:48;;;;;;;;;;;13.50;61.90;;;;;;5094661;28;19950;-75
2022/01/27 13:28:19;;;;;;;;;;;13.70;60.50;;;;;;5093072;28;19931;-76
2022/01/27 13:30:49;;;;;;;;;;;13.80;60.00;;;;;;5094095;28;19928;-76
2022/01/27 13:33:18;;;;;;;;;;;13.80;59.90;;;;;;5075683;28;19928;-76
2022/01/27 13:35:46;;;;;;;;;;;13.90;58.90;;;;;;5072248;28;19924;-76
2022/01/27 13:38:37;;;;;;;;;;;13.50;59.50;;;;;;5073896;28;19924;-76
2022/01/27 13:41:20;;;;;;;;;;;13.30;61.00;;;;;;5072529;28;19925;-76
2022/01/27 13:43:52;;;;;;;;;;;13.00;62.20;;;;;;5073755;28;19924;-78
2022/01/27 13:46:34;;;;;;;;;;;13.20;62.20;;;;;;5073570;28;20278;-75
2022/01/27 13:49:08;;;;;;;;;;;13.20;61.80;;;;;;5072671;28;19925;-75
2022/01/27 13:51:53;;;;;;;;;;;13.00;61.00;;;;;;5088765;28;19924;-75
2022/01/27 13:54:41;;;;;;;;;;;12.70;62.00;;;;;;5094103;28;19924;-75
2022/01/27 13:57:12;;;;;;;;;;;12.50;62.30;;;;;;5086967;28;20373;-75
2022/01/27 13:59:58;;;;;;;;;;;12.20;62.80;;;;;;5073241;28;19924;-75
2022/01/27 14:02:28;;;;;;;;;;;12.00;64.30;;;;;;5073017;28;20381;-75
2022/01/27 14:04:59;;;;;;;;;;;11.80;64.90;;;;;;5073406;28;19924;-76
2022/01/27 14:07:31;;;;;;;;;;;11.40;64.80;;;;;;5081980;28;20360;-74
2022/01/27 14:10:09;;;;;;;;;;;11.10;65.70;;;;;;5094076;28;19950;-75
2022/01/27 14:12:46;;;;;;;;;;;10.80;66.30;;;;;;5099895;28;19924;-75
2022/01/27 14:15:26;;;;;;;;;;;11.10;66.80;;;;;;5101422;28;19931;-75
2022/01/27 14:18:12;;;;;;;;;;;11.30;65.90;;;;;;5080561;28;20274;-76
2022/01/27 14:20:51;;;;;;;;;;;11.10;66.00;;;;;;5090236;28;19931;-75
2022/01/27 14:23:20;;;;;;;;;;;11.40;65.50;;;;;;5092961;28;20309;-76
2022/01/27 14:25:55;;;;;;;;;;;11.80;64.70;;;;;;5126996;27;20293;-78
2022/01/27 14:28:23;;;;;;;;;;;12.30;63.70;;;;;;5075984;28;19924;-73
2022/01/27 14:30:50;;;;;;;;;;;12.30;63.00;;;;;;5072939;28;19932;-74
2022/01/27 14:33:18;;;;;;;;;;;12.10;63.80;;;;;;5072517;28;20368;-74
2022/01/27 14:35:45;;;;;;;;;;;11.80;64.50;;;;;;5071303;28;19924;-74
2022/01/27 14:38:13;;;;;;;;;;;11.60;65.10;;;;;;5073031;28;19925;-74
2022/01/27 14:40:45;;;;;;;;;;;11.30;66.10;;;;;;5072477;28;19924;-76
2022/01/27 14:43:13;;;;;;;;;;;11.30;66.60;;;;;;5071844;28;20297;-72
2022/01/27 14:45:40;;;;;;;;;;;11.10;67.60;;;;;;5087822;28;19924;-72
2022/01/27 14:48:31;;;;;;;;;;;11.00;68.20;;;;;;5092359;28;19924;-73
2022/01/27 14:50:59;;;;;;;;;;;11.00;68.20;;;;;;5092202;28;19935;-73
2022/01/27 14:53:26;;;;;;;;;;;10.80;68.40;;;;;;5074765;28;19924;-73
2022/01/27 14:55:54;;;;;;;;;;;10.70;68.80;;;;;;5085372;28;19935;-73
2022/01/27 14:58:21;;;;;;;;;;;10.60;69.50;;;;;;5089351;28;19924;-73
2022/01/27 15:00:49;;;;;;;;;;;10.60;69.90;;;;;;5092542;28;19924;-73
2022/01/27 15:03:16;;;;;;;;;;;10.40;70.50;;;;;;5088595;28;19928;-74
2022/01/27 15:05:44;;;;;;;;;;;10.30;71.10;;;;;;5089134;28;20305;-73
2022/01/27 15:08:16;;;;;;;;;;;10.20;71.50;;;;;;5085213;28;19928;-73
2022/01/27 15:10:43;;;;;;;;;;;10.10;72.10;;;;;;5093639;28;19986;-73
2022/01/27 15:13:12;;;;;;;;;;;10.00;72.40;;;;;;5089237;28;19924;-73
2022/01/27 15:21:13;;;;;;;;;;;9.80;73.70;;;;;;5089688;28;19931;-73
2022/01/27 15:23:41;;;;;;;;;;;9.70;74.00;;;;;;5091115;28;19970;-73
2022/01/27 15:26:09;;;;;;;;;;;9.70;74.40;;;;;;5090505;28;20288;-74
2022/01/27 15:28:37;;;;;;;;;;;9.60;74.80;;;;;;5093358;28;19924;-75
2022/01/27 15:31:04;;;;;;;;;;;9.60;74.80;;;;;;5072349;28;20400;-75
2022/01/27 15:33:33;;;;;;;;;;;9.50;74.80;;;;;;5089715;28;19932;-75
2022/01/27 15:36:04;;;;;;;;;;;9.50;75.00;;;;;;5090334;28;20377;-75
2022/01/27 15:38:33;;;;;;;;;;;9.30;75.20;;;;;;5090621;28;19931;-75
2022/01/27 15:41:02;;;;;;;;;;;9.30;75.60;;;;;;5087042;28;20313;-76
2022/01/27 15:43:30;;;;;;;;;;;9.30;75.80;;;;;;5093232;28;19924;-72
2022/01/27 15:46:00;;;;;;;;;;;9.20;76.00;;;;;;5089221;28;20388;-72